UAL1412 KMCO-KMIA
Flight info
| Callsign | UAL1412 |
|---|---|
| Flight time | 0h 39m |
| Altitude | 23000 |
| Route | DDANY3 DDANY CSTAL3 |
| Aircraft | A359/H-SDE2E3GHIJ3J4J5LM1ORWXY/LB1D1 |
Departure
| Time | 2026-04-23 02:30 |
|---|---|
| Airport | Orlando International Airport (KMCO) |
Arrival
| Time | 2026-04-23 03:09 |
|---|---|
| Airport | Miami International Airport (KMIA) |
| Time | Latitude | Longitude | Altitude | Speed | Heading |
|---|---|---|---|---|---|
| 2026-04-23 01:49 | 28.43599 | -81.30035 | 107 ft | 0 kts | 257° |
| 2026-04-23 02:13 | 28.43599 | -81.30034 | 107 ft | 0 kts | 257° |
| 2026-04-23 02:13 | 28.43602 | -81.30022 | 106 ft | 2 kts | 257° |
| 2026-04-23 02:13 | 28.43605 | -81.30005 | 107 ft | 2 kts | 257° |
| 2026-04-23 02:13 | 28.43609 | -81.29987 | 106 ft | 2 kts | 257° |
| 2026-04-23 02:14 | 28.43609 | -81.29985 | 105 ft | 0 kts | 257° |
| 2026-04-23 02:18 | 28.43609 | -81.29984 | 105 ft | 0 kts | 257° |
| 2026-04-23 02:18 | 28.43611 | -81.29977 | 106 ft | 0 kts | 257° |
| 2026-04-23 02:19 | 28.43611 | -81.29978 | 106 ft | 1 kts | 257° |
| 2026-04-23 02:19 | 28.43613 | -81.29969 | 105 ft | 0 kts | 257° |
| 2026-04-23 02:20 | 28.43613 | -81.29967 | 105 ft | 0 kts | 257° |
| 2026-04-23 02:20 | 28.43613 | -81.29965 | 105 ft | 1 kts | 257° |
| 2026-04-23 02:20 | 28.43612 | -81.29970 | 106 ft | 0 kts | 257° |
| 2026-04-23 02:21 | 28.43613 | -81.29965 | 105 ft | 0 kts | 257° |
| 2026-04-23 02:23 | 28.43614 | -81.29963 | 107 ft | 0 kts | 257° |
| 2026-04-23 02:24 | 28.43613 | -81.29965 | 107 ft | 0 kts | 257° |
| 2026-04-23 02:25 | 28.43612 | -81.29968 | 107 ft | 3 kts | 250° |
| 2026-04-23 02:25 | 28.43585 | -81.29978 | 105 ft | 5 kts | 167° |
| 2026-04-23 02:26 | 28.43563 | -81.29944 | 106 ft | 7 kts | 110° |
| 2026-04-23 02:26 | 28.43553 | -81.29870 | 105 ft | 6 kts | 93° |
| 2026-04-23 02:26 | 28.43553 | -81.29869 | 105 ft | 0 kts | 93° |
| 2026-04-23 02:27 | 28.43553 | -81.29864 | 105 ft | 7 kts | 93° |
| 2026-04-23 02:27 | 28.43548 | -81.29740 | 107 ft | 6 kts | 101° |
| 2026-04-23 02:27 | 28.43548 | -81.29717 | 107 ft | 2 kts | 90° |
| 2026-04-23 02:27 | 28.43548 | -81.29716 | 107 ft | 0 kts | 90° |
| 2026-04-23 02:28 | 28.43548 | -81.29689 | 107 ft | 8 kts | 89° |
| 2026-04-23 02:28 | 28.43545 | -81.29614 | 108 ft | 10 kts | 106° |
| 2026-04-23 02:29 | 28.43491 | -81.29587 | 109 ft | 9 kts | 178° |
| 2026-04-23 02:29 | 28.43475 | -81.29587 | 110 ft | 0 kts | 180° |
| 2026-04-23 02:29 | 28.43474 | -81.29587 | 110 ft | 1 kts | 180° |
| 2026-04-23 02:30 | 28.43199 | -81.29582 | 111 ft | 88 kts | 179° |
| 2026-04-23 02:30 | 28.42225 | -81.29570 | 117 ft | 187 kts | 178° |
| 2026-04-23 02:30 | 28.40794 | -81.29520 | 865 ft | 223 kts | 172° |
| 2026-04-23 02:30 | 28.39267 | -81.28924 | 2162 ft | 248 kts | 152° |
| 2026-04-23 02:31 | 28.37607 | -81.28091 | 3538 ft | 268 kts | 155° |
| 2026-04-23 02:31 | 28.35907 | -81.27276 | 5352 ft | 264 kts | 150° |
| 2026-04-23 02:31 | 28.34578 | -81.25839 | 6870 ft | 271 kts | 119° |
| 2026-04-23 02:31 | 28.34020 | -81.23784 | 8187 ft | 277 kts | 97° |
| 2026-04-23 02:32 | 28.33769 | -81.21594 | 9220 ft | 283 kts | 97° |
| 2026-04-23 02:32 | 28.33495 | -81.19348 | 10168 ft | 291 kts | 99° |
| 2026-04-23 02:32 | 28.33162 | -81.17002 | 10698 ft | 313 kts | 100° |
| 2026-04-23 02:32 | 28.32766 | -81.14468 | 11076 ft | 338 kts | 101° |
| 2026-04-23 02:33 | 28.32326 | -81.11781 | 11618 ft | 353 kts | 101° |
| 2026-04-23 02:33 | 28.31861 | -81.09004 | 12405 ft | 362 kts | 101° |
| 2026-04-23 02:33 | 28.31382 | -81.06176 | 13193 ft | 369 kts | 101° |
| 2026-04-23 02:33 | 28.30899 | -81.03338 | 13738 ft | 374 kts | 101° |
| 2026-04-23 02:34 | 28.30400 | -81.00419 | 13952 ft | 377 kts | 101° |
| 2026-04-23 02:34 | 28.29898 | -80.97491 | 13973 ft | 379 kts | 101° |
| 2026-04-23 02:34 | 28.29394 | -80.94552 | 13971 ft | 380 kts | 101° |
| 2026-04-23 02:34 | 28.28888 | -80.91615 | 13972 ft | 380 kts | 101° |
| 2026-04-23 02:35 | 28.28381 | -80.88673 | 13972 ft | 380 kts | 101° |
| 2026-04-23 02:35 | 28.27747 | -80.85762 | 14212 ft | 380 kts | 109° |
| 2026-04-23 02:35 | 28.26801 | -80.82948 | 14882 ft | 384 kts | 112° |
| 2026-04-23 02:35 | 28.25787 | -80.80128 | 15688 ft | 388 kts | 112° |
| 2026-04-23 02:36 | 28.24763 | -80.77291 | 16458 ft | 394 kts | 113° |
| 2026-04-23 02:36 | 28.23715 | -80.74386 | 17196 ft | 401 kts | 113° |
| 2026-04-23 02:36 | 28.22573 | -80.71476 | 17931 ft | 406 kts | 119° |
| 2026-04-23 02:36 | 28.20925 | -80.68872 | 18629 ft | 409 kts | 136° |
| 2026-04-23 02:37 | 28.18722 | -80.66916 | 19268 ft | 408 kts | 153° |
| 2026-04-23 02:37 | 28.16109 | -80.65701 | 19964 ft | 407 kts | 167° |
| 2026-04-23 02:37 | 28.13362 | -80.64855 | 20680 ft | 411 kts | 169° |
| 2026-04-23 02:37 | 28.10571 | -80.64045 | 21401 ft | 416 kts | 169° |
| 2026-04-23 02:38 | 28.07748 | -80.63219 | 22126 ft | 420 kts | 169° |
| 2026-04-23 02:38 | 28.04899 | -80.62377 | 22700 ft | 424 kts | 169° |
| 2026-04-23 02:38 | 28.02042 | -80.61526 | 22931 ft | 425 kts | 169° |
| 2026-04-23 02:38 | 27.99185 | -80.60672 | 22952 ft | 424 kts | 169° |
| 2026-04-23 02:39 | 27.96337 | -80.59821 | 22953 ft | 424 kts | 169° |
| 2026-04-23 02:39 | 27.93489 | -80.58969 | 22955 ft | 424 kts | 169° |
| 2026-04-23 02:39 | 27.90629 | -80.58114 | 22958 ft | 424 kts | 169° |
| 2026-04-23 02:39 | 27.87774 | -80.57261 | 22961 ft | 424 kts | 169° |
| 2026-04-23 02:40 | 27.84918 | -80.56408 | 22967 ft | 425 kts | 169° |
| 2026-04-23 02:40 | 27.82054 | -80.55553 | 23137 ft | 425 kts | 169° |
| 2026-04-23 02:40 | 27.79203 | -80.54702 | 23206 ft | 424 kts | 169° |
| 2026-04-23 02:40 | 27.76384 | -80.53861 | 23210 ft | 424 kts | 169° |
| 2026-04-23 02:41 | 27.73530 | -80.53011 | 23194 ft | 424 kts | 170° |
| 2026-04-23 02:41 | 27.70673 | -80.52159 | 23213 ft | 424 kts | 170° |
| 2026-04-23 02:41 | 27.67816 | -80.51309 | 23209 ft | 424 kts | 170° |
| 2026-04-23 02:41 | 27.64956 | -80.50455 | 23215 ft | 425 kts | 170° |
| 2026-04-23 02:42 | 27.62135 | -80.49410 | 23215 ft | 427 kts | 165° |
| 2026-04-23 02:42 | 27.59342 | -80.48252 | 23213 ft | 428 kts | 164° |
| 2026-04-23 02:42 | 27.56545 | -80.47098 | 23217 ft | 427 kts | 165° |
| 2026-04-23 02:42 | 27.53747 | -80.45962 | 23207 ft | 427 kts | 165° |
| 2026-04-23 02:43 | 27.50976 | -80.44849 | 23197 ft | 427 kts | 165° |
| 2026-04-23 02:43 | 27.48172 | -80.43730 | 23207 ft | 427 kts | 165° |
| 2026-04-23 02:43 | 27.45334 | -80.42603 | 23208 ft | 427 kts | 165° |
| 2026-04-23 02:43 | 27.42529 | -80.41491 | 23205 ft | 427 kts | 165° |
| 2026-04-23 02:44 | 27.39754 | -80.40393 | 23193 ft | 427 kts | 165° |
| 2026-04-23 02:44 | 27.36945 | -80.39282 | 23187 ft | 427 kts | 165° |
| 2026-04-23 02:44 | 27.34139 | -80.38174 | 23196 ft | 427 kts | 165° |
| 2026-04-23 02:44 | 27.31330 | -80.37065 | 23195 ft | 427 kts | 165° |
| 2026-04-23 02:45 | 27.28527 | -80.35959 | 23199 ft | 427 kts | 165° |
| 2026-04-23 02:45 | 27.25725 | -80.34855 | 23196 ft | 427 kts | 165° |
| 2026-04-23 02:45 | 27.22920 | -80.33750 | 23194 ft | 427 kts | 165° |
| 2026-04-23 02:45 | 27.20122 | -80.32651 | 23201 ft | 427 kts | 166° |
| 2026-04-23 02:46 | 27.17315 | -80.31560 | 23196 ft | 427 kts | 166° |
| 2026-04-23 02:46 | 27.14505 | -80.30469 | 23200 ft | 427 kts | 166° |
| 2026-04-23 02:46 | 27.11689 | -80.29375 | 23186 ft | 427 kts | 166° |
| 2026-04-23 02:46 | 27.08885 | -80.28287 | 23196 ft | 427 kts | 166° |
| 2026-04-23 02:47 | 27.06105 | -80.27209 | 23199 ft | 428 kts | 166° |
| 2026-04-23 02:47 | 27.03296 | -80.26120 | 23194 ft | 428 kts | 166° |
| 2026-04-23 02:47 | 27.00480 | -80.25028 | 23194 ft | 428 kts | 166° |
| 2026-04-23 02:47 | 26.97667 | -80.23938 | 23194 ft | 428 kts | 166° |
| 2026-04-23 02:48 | 26.94853 | -80.22849 | 23195 ft | 428 kts | 166° |
| 2026-04-23 02:48 | 26.92033 | -80.21758 | 23191 ft | 428 kts | 166° |
| 2026-04-23 02:48 | 26.89222 | -80.20671 | 23190 ft | 428 kts | 166° |
| 2026-04-23 02:48 | 26.86402 | -80.19580 | 23112 ft | 424 kts | 166° |
| 2026-04-23 02:49 | 26.83627 | -80.18527 | 22417 ft | 421 kts | 166° |
| 2026-04-23 02:49 | 26.80845 | -80.17502 | 21344 ft | 430 kts | 166° |
| 2026-04-23 02:49 | 26.77999 | -80.16453 | 20769 ft | 427 kts | 166° |
| 2026-04-23 02:49 | 26.75222 | -80.15423 | 20526 ft | 414 kts | 166° |
| 2026-04-23 02:50 | 26.72518 | -80.14420 | 20218 ft | 404 kts | 166° |
| 2026-04-23 02:50 | 26.69865 | -80.13456 | 19753 ft | 398 kts | 167° |
| 2026-04-23 02:50 | 26.67201 | -80.12710 | 19267 ft | 392 kts | 171° |
| 2026-04-23 02:50 | 26.64551 | -80.12043 | 18775 ft | 389 kts | 171° |
| 2026-04-23 02:51 | 26.61939 | -80.11372 | 18364 ft | 383 kts | 170° |
| 2026-04-23 02:51 | 26.59334 | -80.10690 | 17753 ft | 381 kts | 170° |
| 2026-04-23 02:51 | 26.56751 | -80.10043 | 17153 ft | 379 kts | 171° |
| 2026-04-23 02:51 | 26.54186 | -80.09418 | 16600 ft | 377 kts | 171° |
| 2026-04-23 02:52 | 26.51642 | -80.08793 | 16001 ft | 370 kts | 170° |
| 2026-04-23 02:52 | 26.49145 | -80.08175 | 15070 ft | 368 kts | 170° |
| 2026-04-23 02:52 | 26.46680 | -80.07564 | 14537 ft | 366 kts | 170° |
| 2026-04-23 02:52 | 26.44207 | -80.06970 | 14071 ft | 361 kts | 171° |
| 2026-04-23 02:53 | 26.41751 | -80.06456 | 13566 ft | 357 kts | 172° |
| 2026-04-23 02:53 | 26.39327 | -80.05960 | 13115 ft | 351 kts | 172° |
| 2026-04-23 02:53 | 26.36957 | -80.05396 | 12997 ft | 346 kts | 168° |
| 2026-04-23 02:53 | 26.34670 | -80.04751 | 12872 ft | 331 kts | 167° |
| 2026-04-23 02:54 | 26.32476 | -80.04127 | 12760 ft | 317 kts | 168° |
| 2026-04-23 02:54 | 26.30363 | -80.03535 | 12605 ft | 312 kts | 168° |
| 2026-04-23 02:54 | 26.28252 | -80.02951 | 12487 ft | 313 kts | 168° |
| 2026-04-23 02:54 | 26.26126 | -80.02427 | 12347 ft | 311 kts | 174° |
| 2026-04-23 02:55 | 26.23983 | -80.02488 | 12226 ft | 306 kts | 192° |
| 2026-04-23 02:55 | 26.21930 | -80.02924 | 12091 ft | 304 kts | 195° |
| 2026-04-23 02:55 | 26.19861 | -80.03413 | 11967 ft | 303 kts | 195° |
| 2026-04-23 02:55 | 26.17799 | -80.03898 | 11839 ft | 303 kts | 194° |
| 2026-04-23 02:56 | 26.15737 | -80.04377 | 11720 ft | 302 kts | 194° |
| 2026-04-23 02:56 | 26.13680 | -80.04852 | 11573 ft | 301 kts | 195° |
| 2026-04-23 02:56 | 26.11630 | -80.05323 | 11451 ft | 301 kts | 194° |
| 2026-04-23 02:56 | 26.09582 | -80.05792 | 11335 ft | 300 kts | 194° |
| 2026-04-23 02:57 | 26.07543 | -80.06258 | 11205 ft | 299 kts | 194° |
| 2026-04-23 02:57 | 26.05513 | -80.06739 | 11094 ft | 299 kts | 195° |
| 2026-04-23 02:57 | 26.03497 | -80.07267 | 10891 ft | 297 kts | 195° |
| 2026-04-23 02:57 | 26.01484 | -80.07800 | 10725 ft | 296 kts | 195° |
| 2026-04-23 02:58 | 25.99483 | -80.08326 | 10555 ft | 295 kts | 195° |
| 2026-04-23 02:58 | 25.97490 | -80.08848 | 10400 ft | 294 kts | 194° |
| 2026-04-23 02:58 | 25.95501 | -80.09367 | 10223 ft | 293 kts | 194° |
| 2026-04-23 02:58 | 25.93518 | -80.09884 | 10069 ft | 292 kts | 195° |
| 2026-04-23 02:59 | 25.91605 | -80.10606 | 9892 ft | 290 kts | 206° |
| 2026-04-23 02:59 | 25.89799 | -80.11604 | 9738 ft | 288 kts | 209° |
| 2026-04-23 02:59 | 25.88029 | -80.12636 | 9566 ft | 287 kts | 209° |
| 2026-04-23 02:59 | 25.86265 | -80.13665 | 9409 ft | 286 kts | 209° |
| 2026-04-23 03:00 | 25.84503 | -80.14689 | 9248 ft | 286 kts | 208° |
| 2026-04-23 03:00 | 25.82745 | -80.15708 | 9090 ft | 285 kts | 208° |
| 2026-04-23 03:00 | 25.80990 | -80.16722 | 8944 ft | 284 kts | 209° |
| 2026-04-23 03:00 | 25.79232 | -80.17738 | 8768 ft | 286 kts | 208° |
| 2026-04-23 03:01 | 25.77486 | -80.18747 | 8620 ft | 287 kts | 208° |
| 2026-04-23 03:01 | 25.75717 | -80.19767 | 8451 ft | 287 kts | 208° |
| 2026-04-23 03:01 | 25.73969 | -80.20839 | 8203 ft | 286 kts | 214° |
| 2026-04-23 03:01 | 25.72591 | -80.22389 | 8011 ft | 283 kts | 239° |
| 2026-04-23 03:02 | 25.71863 | -80.24405 | 7662 ft | 281 kts | 256° |
| 2026-04-23 03:02 | 25.71425 | -80.26515 | 7332 ft | 281 kts | 259° |
| 2026-04-23 03:02 | 25.71169 | -80.28668 | 7016 ft | 281 kts | 267° |
| 2026-04-23 03:02 | 25.71066 | -80.30830 | 6730 ft | 280 kts | 269° |
| 2026-04-23 03:03 | 25.70979 | -80.32990 | 6414 ft | 280 kts | 268° |
| 2026-04-23 03:03 | 25.70889 | -80.35145 | 6123 ft | 279 kts | 268° |
| 2026-04-23 03:03 | 25.70794 | -80.37265 | 5845 ft | 280 kts | 268° |
| 2026-04-23 03:03 | 25.70695 | -80.39430 | 5539 ft | 282 kts | 267° |
| 2026-04-23 03:04 | 25.70690 | -80.41601 | 5236 ft | 281 kts | 277° |
| 2026-04-23 03:04 | 25.70908 | -80.42659 | 5089 ft | 281 kts | 290° |
| 2026-04-23 03:05 | 25.71099 | -80.43157 | 5010 ft | 280 kts | 298° |
| 2026-04-23 03:05 | 25.72343 | -80.44777 | 4595 ft | 277 kts | 326° |
| 2026-04-23 03:05 | 25.73992 | -80.45865 | 4115 ft | 276 kts | 334° |
| 2026-04-23 03:05 | 25.75777 | -80.46554 | 3561 ft | 269 kts | 360° |
| 2026-04-23 03:06 | 25.77499 | -80.46107 | 3149 ft | 249 kts | 36° |
| 2026-04-23 03:06 | 25.78492 | -80.44762 | 3026 ft | 213 kts | 74° |
| 2026-04-23 03:06 | 25.78514 | -80.43284 | 3046 ft | 175 kts | 98° |
| 2026-04-23 03:06 | 25.78373 | -80.42061 | 3029 ft | 146 kts | 98° |
| 2026-04-23 03:07 | 25.78256 | -80.40991 | 3026 ft | 136 kts | 93° |
| 2026-04-23 03:07 | 25.78254 | -80.39945 | 3022 ft | 135 kts | 88° |
| 2026-04-23 03:07 | 25.78315 | -80.38862 | 2621 ft | 150 kts | 86° |
| 2026-04-23 03:07 | 25.78417 | -80.37658 | 1931 ft | 163 kts | 85° |
| 2026-04-23 03:08 | 25.78503 | -80.36371 | 1339 ft | 169 kts | 91° |
| 2026-04-23 03:08 | 25.78455 | -80.35078 | 1012 ft | 158 kts | 89° |
| 2026-04-23 03:08 | 25.78518 | -80.33903 | 578 ft | 158 kts | 85° |
| 2026-04-23 03:08 | 25.78567 | -80.32703 | 236 ft | 152 kts | 89° |
| 2026-04-23 03:09 | 25.78604 | -80.31590 | 110 ft | 138 kts | 86° |
| 2026-04-23 03:09 | 25.78648 | -80.30591 | 51 ft | 125 kts | 86° |
| 2026-04-23 03:09 | 25.78691 | -80.29679 | 28 ft | 111 kts | 88° |
| 2026-04-23 03:09 | 25.78714 | -80.29020 | 26 ft | 38 kts | 87° |
| 2026-04-23 03:10 | 25.78721 | -80.28844 | 28 ft | 21 kts | 87° |
| 2026-04-23 03:10 | 25.78729 | -80.28682 | 28 ft | 21 kts | 84° |
| 2026-04-23 03:10 | 25.78768 | -80.28519 | 27 ft | 22 kts | 63° |
| 2026-04-23 03:10 | 25.78833 | -80.28420 | 29 ft | 6 kts | 38° |
| 2026-04-23 03:11 | 25.78869 | -80.28432 | 29 ft | 6 kts | 298° |
| 2026-04-23 03:11 | 25.78875 | -80.28469 | 29 ft | 0 kts | 277° |
| 2026-04-23 03:12 | 25.78877 | -80.28545 | 28 ft | 24 kts | 268° |
| 2026-04-23 03:12 | 25.78868 | -80.28748 | 28 ft | 28 kts | 267° |
| 2026-04-23 03:12 | 25.78839 | -80.28966 | 26 ft | 28 kts | 255° |
| 2026-04-23 03:13 | 25.78818 | -80.29113 | 27 ft | 30 kts | 267° |
| 2026-04-23 03:13 | 25.78814 | -80.29353 | 27 ft | 31 kts | 265° |
| 2026-04-23 03:13 | 25.78799 | -80.29601 | 28 ft | 33 kts | 267° |
| 2026-04-23 03:13 | 25.78789 | -80.29867 | 28 ft | 35 kts | 268° |
| 2026-04-23 03:14 | 25.78782 | -80.30057 | 28 ft | 7 kts | 268° |
| 2026-04-23 03:14 | 25.78784 | -80.30130 | 28 ft | 12 kts | 277° |
| 2026-04-23 03:14 | 25.78815 | -80.30239 | 27 ft | 18 kts | 290° |
| 2026-04-23 03:14 | 25.78846 | -80.30375 | 27 ft | 18 kts | 275° |
| 2026-04-23 03:15 | 25.78847 | -80.30417 | 27 ft | 0 kts | 269° |
| 2026-04-23 03:15 | 25.78846 | -80.30433 | 27 ft | 14 kts | 269° |
| 2026-04-23 03:15 | 25.78876 | -80.30559 | 29 ft | 18 kts | 324° |
| 2026-04-23 03:16 | 25.78898 | -80.30569 | 26 ft | 1 kts | 345° |
| 2026-04-23 03:16 | 25.78906 | -80.30571 | 30 ft | 0 kts | 346° |
| 2026-04-23 03:16 | 25.78959 | -80.30560 | 26 ft | 7 kts | 24° |
| 2026-04-23 03:17 | 25.78970 | -80.30528 | 28 ft | 5 kts | 88° |
| 2026-04-23 03:17 | 25.78970 | -80.30488 | 30 ft | 0 kts | 89° |
| 2026-04-23 03:17 | 25.78970 | -80.30484 | 30 ft | 0 kts | 89° |